createdAt,value
2023-01-04T00:01:38.809Z,101963.78
2023-01-04T00:04:05.545Z,101961.97
2023-01-04T00:06:32.804Z,101961.97
2023-01-04T00:08:59.339Z,101962.75
2023-01-04T00:11:25.918Z,101961.97
2023-01-04T00:13:56.312Z,101952.34
2023-01-04T00:16:24.918Z,101951.34
2023-01-04T00:18:55.757Z,101946.91
2023-01-04T00:21:25.019Z,101941.50
2023-01-04T00:23:54.260Z,101930.53
2023-01-04T00:26:24.549Z,101921.69
2023-01-04T00:28:56.246Z,101907.91
2023-01-04T00:31:23.986Z,101886.34
2023-01-04T00:33:54.639Z,101903.50
2023-01-04T00:36:22.095Z,101898.06
2023-01-04T00:39:07.139Z,101899.88
2023-01-04T00:41:58.243Z,101880.66
2023-01-04T00:44:21.722Z,101883.25
2023-01-04T00:46:51.824Z,101878.59
2023-01-04T00:49:18.497Z,101870.81
2023-01-04T00:51:44.984Z,101868.97
2023-01-04T00:54:14.383Z,101864.59
2023-01-04T00:56:40.995Z,101858.34
2023-01-04T00:59:07.594Z,101852.16
2023-01-04T01:01:35.267Z,101840.69
2023-01-04T01:04:04.159Z,101838.88
2023-01-04T01:06:32.645Z,101832.66
2023-01-04T01:09:00.959Z,101823.59
2023-01-04T01:11:28.472Z,101814.78
2023-01-04T01:13:55.135Z,101810.13
2023-01-04T01:16:51.794Z,101806.50
2023-01-04T01:19:12.165Z,101795.09
2023-01-04T01:21:39.249Z,101792.25
2023-01-04T01:24:06.844Z,101791.22
2023-01-04T01:26:33.658Z,101786.78
2023-01-04T01:29:00.132Z,101786.56
2023-01-04T01:31:29.033Z,101800.41
2023-01-04T01:33:59.179Z,101774.94
2023-01-04T01:36:26.849Z,101760.13
2023-01-04T01:38:54.221Z,101770.28
2023-01-04T01:41:25.459Z,101773.97
2023-01-04T01:43:53.799Z,101776.13
2023-01-04T01:46:28.054Z,101774.84
2023-01-04T01:49:01.112Z,101772.00
2023-01-04T01:51:29.272Z,101781.91
2023-01-04T01:54:04.699Z,101767.38
2023-01-04T01:56:35.126Z,101767.38
2023-01-04T01:59:02.420Z,101760.13
2023-01-04T02:01:29.259Z,101752.84
2023-01-04T02:03:56.449Z,101765.41
2023-01-04T02:06:29.531Z,101748.25
2023-01-04T02:08:56.258Z,101763.59
2023-01-04T02:11:22.821Z,101746.50
2023-01-04T02:14:31.807Z,101741.03
2023-01-04T02:17:07.382Z,101740.56
2023-01-04T02:19:52.611Z,101748.66
2023-01-04T02:22:38.156Z,101747.69
2023-01-04T02:25:10.389Z,101750.84
2023-01-04T02:28:14.141Z,101740.16
2023-01-04T02:30:49.484Z,101751.91
2023-01-04T02:33:47.555Z,101737.38
2023-01-04T02:36:22.859Z,101729.06
2023-01-04T02:39:33.706Z,101730.94
2023-01-04T02:42:14.305Z,101734.31
2023-01-04T02:44:53.741Z,101719.00
2023-01-04T02:48:00.044Z,101711.72
2023-01-04T02:50:31.541Z,101722.13
2023-01-04T02:53:20.619Z,101716.41
2023-01-04T02:56:05.698Z,101710.72
2023-01-04T02:58:52.885Z,101701.09
2023-01-04T03:02:02.601Z,101707.59
2023-01-04T03:05:27.779Z,101710.53
2023-01-04T03:08:10.682Z,101711.31
2023-01-04T03:11:02.014Z,101692.34
2023-01-04T03:13:38.278Z,101711.91
2023-01-04T03:16:13.220Z,101691.06
2023-01-04T03:18:46.901Z,101686.38
2023-01-04T03:21:15.514Z,101686.16
2023-01-04T03:24:03.627Z,101680.66
2023-01-04T03:26:58.505Z,101677.56
2023-01-04T03:29:59.234Z,101696.59
2023-01-04T03:33:05.835Z,101677.88
2023-01-04T03:35:42.869Z,101684.38
2023-01-04T03:38:35.266Z,101677.09
2023-01-04T03:41:47.820Z,101670.34
2023-01-04T03:44:49.182Z,101669.88
2023-01-04T03:47:46.071Z,101665.72
2023-01-04T03:50:29.391Z,101663.91
2023-01-04T03:53:02.280Z,101659.50
2023-01-04T03:55:33.835Z,101669.44
2023-01-04T03:58:03.277Z,101657.97
2023-01-04T04:00:29.994Z,101664.22
2023-01-04T04:03:19.246Z,101666.34
2023-01-04T04:06:07.912Z,101650.97
2023-01-04T04:08:42.631Z,101648.63
2023-01-04T04:11:28.574Z,101651.00
2023-01-04T04:13:55.196Z,101627.28
2023-01-04T04:16:31.195Z,101639.00
2023-01-04T04:19:00.777Z,101631.72
2023-01-04T04:21:31.150Z,101618.19
2023-01-04T04:24:00.908Z,101629.91
2023-01-04T04:26:30.910Z,101601.25
2023-01-04T04:28:57.876Z,101612.22
2023-01-04T04:31:24.835Z,101613.28
2023-01-04T04:33:56.578Z,101610.38
2023-01-04T04:36:27.877Z,101611.19
2023-01-04T04:38:55.976Z,101603.88
2023-01-04T04:41:41.728Z,101585.63
2023-01-04T04:44:13.447Z,101599.72
2023-01-04T04:46:40.588Z,101606.00
2023-01-04T04:49:08.782Z,101585.66
2023-01-04T04:51:36.893Z,101580.94
2023-01-04T04:54:06.338Z,101576.00
2023-01-04T04:56:33.113Z,101582.78
2023-01-04T04:58:59.869Z,101593.97
2023-01-04T05:01:26.621Z,101580.94
2023-01-04T05:03:53.213Z,101577.56
2023-01-04T05:06:22.538Z,101575.19
2023-01-04T05:08:49.119Z,101578.34
2023-01-04T05:11:15.948Z,101564.25
2023-01-04T05:13:42.526Z,101583.28
2023-01-04T05:16:10.521Z,101581.47
2023-01-04T05:18:37.274Z,101568.16
2023-01-04T05:21:04.051Z,101568.94
2023-01-04T05:23:30.607Z,101580.19
2023-01-04T05:26:03.704Z,101569.22
2023-01-04T05:28:30.702Z,101566.63
2023-01-04T05:30:58.463Z,101577.81
2023-01-04T05:33:30.209Z,101570.53
2023-01-04T05:36:00.549Z,101562.94
2023-01-04T05:38:27.542Z,101557.72
2023-01-04T05:40:54.756Z,101556.94
2023-01-04T05:43:23.935Z,101547.81
2023-01-04T05:45:56.326Z,101547.56
2023-01-04T05:48:27.180Z,101540.75
2023-01-04T05:50:54.305Z,101528.50
2023-01-04T05:53:20.961Z,101531.38
2023-01-04T05:55:50.609Z,101530.59
2023-01-04T05:58:17.134Z,101524.59
2023-01-04T06:00:43.547Z,101518.84
2023-01-04T06:03:10.155Z,101504.25
2023-01-04T06:05:37.469Z,101517.28
2023-01-04T06:08:04.082Z,101519.91
2023-01-04T06:10:30.578Z,101506.31
2023-01-04T06:12:57.215Z,101531.13
2023-01-04T06:15:23.686Z,101536.34
2023-01-04T06:17:50.450Z,101514.66
2023-01-04T06:20:17.003Z,101517.00
2023-01-04T06:22:43.585Z,101524.59
2023-01-04T06:25:10.668Z,101531.91
2023-01-04T06:27:37.366Z,101521.47
2023-01-04T06:30:05.231Z,101537.66
2023-01-04T06:32:33.440Z,101541.03
2023-01-04T06:35:00.361Z,101533.97
2023-01-04T06:37:28.440Z,101533.19
2023-01-04T06:39:55.003Z,101538.16
2023-01-04T06:42:40.067Z,101529.03
2023-01-04T06:45:07.089Z,101531.38
2023-01-04T06:47:33.623Z,101513.88
2023-01-04T06:50:00.290Z,101515.44
2023-01-04T06:52:31.645Z,101512.56
2023-01-04T06:54:58.406Z,101506.56
2023-01-04T06:57:27.893Z,101513.63
2023-01-04T06:59:54.574Z,101504.22
2023-01-04T07:02:21.267Z,101496.09
2023-01-04T07:04:48.016Z,101492.97
2023-01-04T07:07:17.999Z,101491.16
2023-01-04T07:09:44.811Z,101487.50
2023-01-04T07:12:11.362Z,101500.53
2023-01-04T07:14:38.989Z,101486.72
2023-01-04T07:17:07.739Z,101474.97
2023-01-04T07:19:34.237Z,101489.84
2023-01-04T07:22:03.261Z,101489.84
2023-01-04T07:24:32.155Z,101473.66
2023-01-04T07:27:04.643Z,101476.78
2023-01-04T07:29:31.201Z,101465.28
2023-01-04T07:31:57.794Z,101470.78
2023-01-04T07:34:25.755Z,101460.34
2023-01-04T07:36:52.621Z,101476.78
2023-01-04T07:39:19.606Z,101478.34
2023-01-04T07:41:51.254Z,101473.94
2023-01-04T07:44:18.610Z,101468.41
2023-01-04T07:46:45.589Z,101465.81
2023-01-04T07:49:17.528Z,101468.16
2023-01-04T07:51:45.757Z,101464.78
2023-01-04T07:54:12.430Z,101464.50
2023-01-04T07:56:38.988Z,101460.31
2023-01-04T07:59:08.637Z,101460.31
2023-01-04T08:01:38.437Z,101456.16
2023-01-04T08:04:07.134Z,101450.69
2023-01-04T08:06:37.098Z,101450.94
2023-01-04T08:09:07.349Z,101464.50
2023-01-04T08:11:34.755Z,101467.13
2023-01-04T08:14:01.694Z,101467.91
2023-01-04T08:16:33.207Z,101476.00
2023-01-04T08:19:05.937Z,101470.78
2023-01-04T08:21:34.782Z,101475.44
2023-01-04T08:24:02.065Z,101463.19
2023-01-04T08:26:29.538Z,101470.75
2023-01-04T08:28:57.433Z,101471.25
2023-01-04T08:31:28.348Z,101474.94
2023-01-04T08:33:56.011Z,101460.81
2023-01-04T08:36:47.438Z,101459.53
2023-01-04T08:39:14.414Z,101465.25
2023-01-04T08:42:09.106Z,101444.38
2023-01-04T08:44:41.613Z,101458.19
2023-01-04T08:47:08.402Z,101464.97
2023-01-04T08:49:35.002Z,101468.09
2023-01-04T08:52:01.658Z,101474.91
2023-01-04T08:54:28.256Z,101462.88
2023-01-04T08:56:57.072Z,101467.84
2023-01-04T08:59:23.684Z,101469.13
2023-01-04T09:01:50.298Z,101477.25
2023-01-04T09:04:16.969Z,101473.31
2023-01-04T09:06:46.390Z,101481.66
2023-01-04T09:09:14.390Z,101471.72
2023-01-04T09:11:40.996Z,101479.56
2023-01-04T09:14:09.601Z,101481.69
2023-01-04T09:16:43.606Z,101475.41
2023-01-04T09:19:10.251Z,101481.13
2023-01-04T09:21:36.964Z,101483.75
2023-01-04T09:24:03.714Z,101497.59
2023-01-04T09:26:33.586Z,101484.25
2023-01-04T09:29:00.295Z,101491.06
2023-01-04T09:31:28.759Z,101497.56
2023-01-04T09:34:14.710Z,101496.25
2023-01-04T09:36:42.311Z,101496.78
2023-01-04T09:39:13.291Z,101498.34
2023-01-04T09:41:53.125Z,101504.34
2023-01-04T09:47:22.585Z,101504.59
2023-01-04T09:50:05.877Z,101503.53
2023-01-04T09:52:56.489Z,101510.34
2023-01-04T09:55:38.292Z,101514.00
2023-01-04T09:58:18.161Z,101506.66
2023-01-04T10:00:47.825Z,101498.81
2023-01-04T10:03:25.585Z,101500.41
2023-01-04T10:05:55.719Z,101499.63
2023-01-04T10:08:23.033Z,101502.75
2023-01-04T10:11:03.782Z,101520.22
2023-01-04T10:13:45.864Z,101515.78
2023-01-04T10:16:17.646Z,101510.28
2023-01-04T10:20:59.924Z,101510.81
2023-01-04T10:22:23.173Z,101507.94
2023-01-04T10:25:00.185Z,101504.50
2023-01-04T10:27:44.738Z,101503.75
2023-01-04T10:31:39.573Z,101506.09
2023-01-04T10:34:18.811Z,101499.03
2023-01-04T10:36:47.695Z,101505.56
2023-01-04T10:39:26.976Z,101495.91
2023-01-04T10:42:00.227Z,101503.47
2023-01-04T10:44:57.303Z,101501.38
2023-01-04T10:47:36.334Z,101499.78
2023-01-04T10:50:17.970Z,101496.91
2023-01-04T10:52:51.883Z,101502.16
2023-01-04T10:55:27.377Z,101496.09
2023-01-04T10:58:05.843Z,101483.03
2023-01-04T11:00:43.227Z,101482.00
2023-01-04T11:03:23.451Z,101481.19
2023-01-04T11:05:57.738Z,101479.06
2023-01-04T11:08:37.129Z,101480.91
2023-01-04T11:11:06.728Z,101481.16
2023-01-04T11:13:33.584Z,101471.47
2023-01-04T11:16:02.875Z,101460.50
2023-01-04T11:18:32.960Z,101450.56
2023-01-04T11:21:02.108Z,101454.75
2023-01-04T11:23:28.701Z,101454.75
2023-01-04T11:26:13.554Z,101456.88
2023-01-04T11:28:57.804Z,101436.72
2023-01-04T11:31:43.142Z,101443.50
2023-01-04T11:34:09.812Z,101429.91
2023-01-04T11:36:44.239Z,101427.81
2023-01-04T11:39:26.439Z,101434.88
2023-01-04T11:42:04.713Z,101432.25
2023-01-04T11:44:34.571Z,101431.22
2023-01-04T11:47:08.063Z,101441.38
2023-01-04T11:49:36.728Z,101428.06
2023-01-04T11:52:04.827Z,101417.00
2023-01-04T11:54:31.442Z,101425.88
2023-01-04T11:57:08.861Z,101444.41
2023-01-04T11:59:37.642Z,101441.53
2023-01-04T12:05:28.887Z,101447.81
2023-01-04T12:07:56.770Z,101443.13
2023-01-04T12:10:27.574Z,101426.88
2023-01-04T12:12:55.667Z,101423.22
2023-01-04T12:16:05.271Z,101423.47
2023-01-04T12:18:38.830Z,101430.00
2023-01-04T12:21:06.074Z,101426.34
2023-01-04T12:23:39.182Z,101429.75
2023-01-04T12:26:08.780Z,101424.25
2023-01-04T12:28:53.895Z,101437.25
2023-01-04T12:31:21.370Z,101447.19
2023-01-04T12:33:50.032Z,101426.25
2023-01-04T12:36:19.962Z,101422.03
2023-01-04T12:38:52.728Z,101418.34
2023-01-04T12:41:25.296Z,101407.91
2023-01-04T12:43:53.529Z,101408.97
2023-01-04T12:47:00.954Z,101411.59
2023-01-04T12:49:30.375Z,101413.13
2023-01-04T12:52:34.382Z,101402.66
2023-01-04T12:55:25.220Z,101407.91
2023-01-04T12:57:51.781Z,101405.28
2023-01-04T13:00:18.800Z,101411.00
2023-01-04T13:02:48.207Z,101415.72
2023-01-04T13:08:10.700Z,101420.94
2023-01-04T13:10:43.756Z,101427.72
2023-01-04T13:13:35.019Z,101426.94
2023-01-04T13:16:33.423Z,101428.78
2023-01-04T13:19:03.043Z,101426.69
2023-01-04T13:21:34.837Z,101423.81
2023-01-04T13:24:05.227Z,101418.84
2023-01-04T13:26:42.903Z,101412.03
2023-01-04T13:29:30.917Z,101423.56
2023-01-04T13:32:00.496Z,101433.53
2023-01-04T13:34:30.335Z,101432.25
2023-01-04T13:37:12.411Z,101437.97
2023-01-04T13:39:51.180Z,101431.94
2023-01-04T13:42:41.787Z,101425.19
2023-01-04T13:45:20.034Z,101424.16
2023-01-04T13:47:52.753Z,101406.88
2023-01-04T13:50:44.299Z,101413.13
2023-01-04T13:53:27.148Z,101412.84
2023-01-04T13:56:03.731Z,101399.00
2023-01-04T13:58:33.044Z,101406.34
2023-01-04T14:01:27.224Z,101408.97
2023-01-04T14:03:57.621Z,101414.22
2023-01-04T14:06:31.628Z,101417.13
2023-01-04T14:09:04.320Z,101422.13
2023-01-04T14:14:44.868Z,101412.78
2023-01-04T14:17:26.556Z,101392.38
2023-01-04T14:19:54.650Z,101400.50
2023-01-04T14:22:21.177Z,101401.28
2023-01-04T14:27:42.533Z,101401.09
2023-01-04T14:30:18.419Z,101410.50
2023-01-04T14:33:02.464Z,101396.69
2023-01-04T14:35:30.750Z,101396.44
2023-01-04T14:38:09.201Z,101397.78
2023-01-04T14:40:45.871Z,101409.56
2023-01-04T14:43:43.438Z,101403.81
2023-01-04T14:46:10.256Z,101405.13
2023-01-04T14:48:36.803Z,101410.66
2023-01-04T14:51:05.274Z,101405.69
2023-01-04T14:53:32.516Z,101395.50
2023-01-04T14:55:59.527Z,101396.28
2023-01-04T14:58:26.259Z,101399.19
2023-01-04T15:00:53.090Z,101388.72
2023-01-04T15:03:21.052Z,101390.81
2023-01-04T15:05:48.542Z,101389.00
2023-01-04T15:08:15.230Z,101405.72
2023-01-04T15:10:41.838Z,101397.34
2023-01-04T15:13:10.738Z,101414.09
2023-01-04T15:15:37.525Z,101412.53
2023-01-04T15:18:04.191Z,101414.63
2023-01-04T15:20:31.866Z,101426.09
2023-01-04T15:23:00.708Z,101432.91
2023-01-04T15:25:29.631Z,101421.16
2023-01-04T15:27:56.239Z,101432.41
2023-01-04T15:30:23.650Z,101431.63
2023-01-04T15:32:50.288Z,101429.28
2023-01-04T15:35:17.178Z,101432.94
2023-01-04T15:37:44.721Z,101429.03
2023-01-04T15:40:13.337Z,101422.25
2023-01-04T15:42:58.822Z,101417.03
2023-01-04T15:45:29.659Z,101408.16
2023-01-04T15:48:02.893Z,101411.81
2023-01-04T15:50:31.465Z,101412.09
2023-01-04T15:52:58.099Z,101405.84
2023-01-04T15:55:25.082Z,101405.84
2023-01-04T15:57:51.720Z,101403.47
2023-01-04T16:00:18.627Z,101393.59
2023-01-04T16:02:45.173Z,101396.97
2023-01-04T16:05:11.976Z,101389.69
2023-01-04T16:07:38.587Z,101398.56
2023-01-04T16:10:08.220Z,101398.31
2023-01-04T16:12:44.627Z,101392.06
2023-01-04T16:15:17.002Z,101388.66
2023-01-04T16:17:45.246Z,101395.72
2023-01-04T16:20:15.223Z,101406.16
2023-01-04T16:22:42.485Z,101410.59
2023-01-04T16:25:11.885Z,101421.06
2023-01-04T16:27:39.692Z,101428.88
2023-01-04T16:30:10.830Z,101431.00
2023-01-04T16:32:43.799Z,101435.19
2023-01-04T16:35:11.266Z,101428.38
2023-01-04T16:37:38.230Z,101438.06
2023-01-04T16:40:07.207Z,101437.50
2023-01-04T16:42:34.785Z,101441.69
2023-01-04T16:45:01.375Z,101439.34
2023-01-04T16:47:27.864Z,101423.69
2023-01-04T16:49:54.667Z,101422.63
2023-01-04T16:52:21.941Z,101424.72
2023-01-04T16:54:49.368Z,101425.22
2023-01-04T16:57:16.083Z,101423.41
2023-01-04T16:59:42.923Z,101429.44
2023-01-04T17:02:11.998Z,101420.53
2023-01-04T17:04:38.529Z,101423.41
2023-01-04T17:07:05.275Z,101421.59
2023-01-04T17:09:32.224Z,101438.84
2023-01-04T17:15:00.894Z,101447.97
2023-01-04T17:17:33.690Z,101434.91
2023-01-04T17:20:00.448Z,101449.28
2023-01-04T17:22:33.925Z,101437.00
2023-01-04T17:25:01.109Z,101428.13
2023-01-04T17:27:27.677Z,101441.47
2023-01-04T17:29:54.241Z,101454.50
2023-01-04T17:32:20.783Z,101451.13
2023-01-04T17:34:49.629Z,101455.06
2023-01-04T17:37:16.191Z,101447.50
2023-01-04T17:39:42.695Z,101455.06
2023-01-04T17:42:09.665Z,101465.47
2023-01-04T17:44:36.265Z,101459.75
2023-01-04T17:47:02.823Z,101469.66
2023-01-04T17:49:32.004Z,101486.88
2023-01-04T17:51:59.219Z,101484.28
2023-01-04T17:54:26.871Z,101496.81
2023-01-04T17:56:53.431Z,101488.22
2023-01-04T17:59:21.223Z,101496.03
2023-01-04T18:01:47.856Z,101496.84
2023-01-04T18:04:14.447Z,101498.16
2023-01-04T18:06:42.137Z,101492.44
2023-01-04T18:09:10.562Z,101503.13
2023-01-04T18:11:37.999Z,101508.63
2023-01-04T18:14:09.589Z,101495.31
2023-01-04T18:16:56.904Z,101494.78
2023-01-04T18:19:25.984Z,101479.13
2023-01-04T18:21:56.103Z,101491.91
2023-01-04T18:24:39.278Z,101504.97
2023-01-04T18:27:26.871Z,101490.63
2023-01-04T18:29:55.775Z,101492.47
2023-01-04T18:32:24.226Z,101497.41
2023-01-04T18:34:50.904Z,101496.09
2023-01-04T18:37:18.948Z,101503.41
2023-01-04T18:39:46.407Z,101512.81
2023-01-04T18:42:12.926Z,101506.28
2023-01-04T18:44:45.587Z,101498.97
2023-01-04T18:47:12.522Z,101506.81
2023-01-04T18:49:39.207Z,101506.03
2023-01-04T18:52:05.965Z,101504.72
2023-01-04T18:54:32.711Z,101512.53
2023-01-04T18:57:01.293Z,101516.47
2023-01-04T18:59:29.885Z,101519.09
2023-01-04T19:02:04.095Z,101518.28
2023-01-04T19:04:33.724Z,101517.25
2023-01-04T19:07:01.064Z,101520.13
2023-01-04T19:09:28.254Z,101508.13
2023-01-04T19:11:54.717Z,101518.81
2023-01-04T19:14:21.645Z,101519.88
2023-01-04T19:16:48.274Z,101507.84
2023-01-04T19:19:14.955Z,101520.38
2023-01-04T19:21:41.658Z,101512.53
2023-01-04T19:24:08.342Z,101514.91
2023-01-04T19:26:34.979Z,101498.16
2023-01-04T19:29:01.881Z,101506.78
2023-01-04T19:31:28.486Z,101519.31
2023-01-04T19:33:55.111Z,101516.19
2023-01-04T19:36:21.980Z,101525.56
2023-01-04T19:38:49.051Z,101514.06
2023-01-04T19:41:27.742Z,101520.34
2023-01-04T19:43:59.765Z,101527.94
2023-01-04T19:46:26.353Z,101515.66
2023-01-04T19:48:52.955Z,101525.06
2023-01-04T19:51:19.738Z,101528.19
2023-01-04T19:53:46.866Z,101531.06
2023-01-04T19:56:16.879Z,101547.50
2023-01-04T19:58:44.093Z,101549.06
2023-01-04T20:01:16.420Z,101550.63
2023-01-04T20:03:43.250Z,101558.47
2023-01-04T20:06:10.999Z,101554.28
2023-01-04T20:08:38.512Z,101557.19
2023-01-04T20:11:05.494Z,101563.19
2023-01-04T20:13:35.971Z,101560.03
2023-01-04T20:16:06.266Z,101558.47
2023-01-04T20:18:33.380Z,101556.13
2023-01-04T20:21:00.218Z,101547.50
2023-01-04T20:23:26.854Z,101557.69
2023-01-04T20:25:54.604Z,101573.06
2023-01-04T20:28:24.270Z,101561.59
2023-01-04T20:31:06.829Z,101566.31
2023-01-04T20:33:33.855Z,101573.84
2023-01-04T20:36:06.629Z,101570.22
2023-01-04T20:38:39.916Z,101558.47
2023-01-04T20:41:08.136Z,101573.34
2023-01-04T20:43:34.791Z,101567.09
2023-01-04T20:46:02.671Z,101560.03
2023-01-04T20:48:29.570Z,101564.22
2023-01-04T20:50:56.463Z,101561.84
2023-01-04T20:53:23.255Z,101580.41
2023-01-04T20:55:49.843Z,101573.59
2023-01-04T20:58:17.580Z,101576.50
2023-01-04T21:00:46.926Z,101577.78
2023-01-04T21:03:14.996Z,101580.13
2023-01-04T21:05:46.928Z,101576.22
2023-01-04T21:08:14.025Z,101585.09
2023-01-04T21:10:42.615Z,101579.88
2023-01-04T21:13:14.874Z,101595.31
2023-01-04T21:15:41.572Z,101586.69
2023-01-04T21:18:11.877Z,101589.56
2023-01-04T21:20:43.166Z,101588.28
2023-01-04T21:23:18.027Z,101596.09
2023-01-04T21:25:47.672Z,101584.59
2023-01-04T21:28:14.643Z,101606.00
2023-01-04T21:30:45.070Z,101605.50
2023-01-04T21:33:14.427Z,101602.09
2023-01-04T21:35:41.495Z,101609.13
2023-01-04T21:38:09.124Z,101615.66
2023-01-04T21:40:38.940Z,101626.63
2023-01-04T21:43:05.920Z,101626.38
2023-01-04T21:45:32.562Z,101623.00
2023-01-04T21:47:59.127Z,101628.22
2023-01-04T21:50:31.388Z,101630.53
2023-01-04T21:52:59.712Z,101635.75
2023-01-04T21:55:32.437Z,101638.38
2023-01-04T21:58:01.008Z,101622.19
2023-01-04T22:00:27.458Z,101613.31
2023-01-04T22:02:54.128Z,101619.59
2023-01-04T22:05:20.994Z,101617.50
2023-01-04T22:07:47.568Z,101621.66
2023-01-04T22:10:14.495Z,101631.59
2023-01-04T22:12:41.959Z,101627.41
2023-01-04T22:15:12.425Z,101636.31
2023-01-04T22:17:39.017Z,101631.06
2023-01-04T22:20:09.179Z,101635.25
2023-01-04T22:22:39.494Z,101639.94
2023-01-04T22:25:07.967Z,101638.66
2023-01-04T22:27:36.063Z,101650.41
2023-01-04T22:30:06.410Z,101639.44
2023-01-04T22:32:38.394Z,101644.38
2023-01-04T22:35:07.145Z,101638.91
2023-01-04T22:37:40.989Z,101657.72
2023-01-04T22:40:13.430Z,101654.56
2023-01-04T22:42:40.835Z,101650.41
2023-01-04T22:45:13.216Z,101657.69
2023-01-04T22:47:40.190Z,101653.53
2023-01-04T22:50:07.036Z,101671.00
2023-01-04T22:52:33.593Z,101668.16
2023-01-04T22:55:00.136Z,101667.13
2023-01-04T22:57:26.646Z,101682.78
2023-01-04T22:59:53.190Z,101668.66
2023-01-04T23:02:19.689Z,101684.84
2023-01-04T23:04:46.160Z,101675.47
2023-01-04T23:07:12.649Z,101684.84
2023-01-04T23:09:39.249Z,101673.38
2023-01-04T23:12:05.985Z,101676.50
2023-01-04T23:14:32.784Z,101682.78
2023-01-04T23:16:59.309Z,101692.16
2023-01-04T23:19:26.187Z,101704.94
2023-01-04T23:21:52.978Z,101709.38
2023-01-04T23:24:19.440Z,101698.41
2023-01-04T23:26:47.350Z,101712.00
2023-01-04T23:29:13.876Z,101703.38
2023-01-04T23:31:40.497Z,101696.28
2023-01-04T23:34:07.370Z,101700.97
2023-01-04T23:36:36.706Z,101705.66
2023-01-04T23:39:07.132Z,101707.50
2023-01-04T23:41:46.716Z,101701.47
2023-01-04T23:44:27.498Z,101711.88
2023-01-04T23:46:56.889Z,101708.22
2023-01-04T23:49:26.433Z,101711.88
2023-01-04T23:51:53.255Z,101712.91
2023-01-04T23:54:20.679Z,101722.81
2023-01-04T23:56:47.257Z,101717.56
2023-01-04T23:59:14.183Z,101720.16
